Aérodrome :
LOGIN :

S'inscrire | Disclaimer

   EN    FR    IT 

 










Légende :    VFR   VFR Marginal   IFR   IFR Intensif   IFR Très Intensif
Visi : 
Plafond : 
>= 8 km
>= 3000ft
5 à 8 km
1000 à 3000 ft
1500m à 5 km
500 à 1000 ft
800 à 1500m
200 à 500 ft
< 800m
< 200 ft
Symboles :   Orages  Brouillard  Fortes neiges  Fortes précipitations  Vent > 20 kt
SIGMETs :   Divers  Orages  Givrage  Turbulence  Onde Orograph.  Cendres Volcan.






- Altitude de l'aérodrome : 636 ft


LPBJ - Beja Air Base

DERNIER METAR :
  • 200500Z 14008KT 110V170 9999 -RA FEW018 SCT028 BKN045 09/08 Q1010

METARs EXPIRÉS :
  • 200400Z 14008KT 7000 -RA BKN023 SCT040 09/09 Q1011
  • 200300Z 13006KT 7000 -RA BKN025 SCT042 10/08 Q1011

TAF TAF LPBJ
Valide du 20 à 00h jusqu'au 21 à 00h UTC


192306Z 2000/2024 17010KT 9999 FEW025 BKN040
BECMG 2001/2003 17010KT 7000 -RA SCT014 BKN022
TEMPO 2003/2010 2000 RADZ BR SCT003 BKN006 FEW014CB
PROB40
TEMPO 2006/2010 1200 DZRA BR BKN003 BKN006
BECMG 2010/2012 28010KT 9999 NSW SCT020
TEMPO 2012/2018 27012G22KT 4000 SHRA BKN016 FEW020CB
BECMG 2021/2024 21005KT 7000 BCFG SCT004



MET'MAP, la Météo Aéronautique d'un coup d'oeil ! - Copyright ORBIFLY Décembre 2007 - Disclaimer

ORBIFLY MET'MAP TEAM :

Programmation & Développement : Alexandra Zaïnal
Conception & Développement : Baudouin d'Aumeries
Co-Programmation & Développement : Marc-Olivier Méhu
Soutien technique & logistique : Manuel Goepfert

Contact : metmap@orbifly.com




SOURCES & CREDITS :

   NOAA